Rechercher aéroport 
image banner adimage banner adimage banner ad
image banner ad

O59 - Cedarville

Situé à Cedarville, United States

ICAO - O59, IATA -

Données fournies par Airmate  

Information générale

Coordonnées: N41°33'13" W120°9'56"
Élévation : 4623 feet MSL.
Variation magnétique : 17° East
Voir autres Aéroports à California

Données opérationnelles

Special qualification required
Heure actuelle UTC:
Heure actuelle locale:
Météo à : KAAT - Alturas Muni ( 34 km )
METAR: KAAT 020555Z AUTO 14006KT 10SM CLR 20/06 A3023 RMK AO2 SLP188 T02000056 10317 20200 51022 $
Voir NOTAMs / SUP AIP / TFR affectant cet aéroport [VIEW]
Fréquences de communication: [VIEW]

Pistes:

Identifiant RWYQFULongueur (ft)Largeur (ft)SurfaceLDA (ft)
02441550ASPH
20441550ASPH

Coordonnées de l'aéroport

Adresse: Cedarville United States

Vue satellite de O59